createdAt,value
2018-12-20T00:01:49.793Z,72.81
2018-12-20T00:05:53.296Z,72.40
2018-12-20T00:09:56.851Z,73.27
2018-12-20T00:14:00.378Z,73.01
2018-12-20T00:18:05.136Z,73.15
2018-12-20T00:22:09.006Z,73.29
2018-12-20T00:26:12.546Z,73.41
2018-12-20T00:30:16.010Z,73.63
2018-12-20T00:34:19.445Z,73.45
2018-12-20T00:38:22.953Z,73.33
2018-12-20T00:42:32.969Z,73.58
2018-12-20T00:46:36.407Z,73.16
2018-12-20T00:50:39.899Z,73.77
2018-12-20T00:54:43.479Z,73.65
2018-12-20T00:58:46.951Z,73.53
2018-12-20T01:02:55.195Z,73.54
2018-12-20T01:06:55.967Z,73.45
2018-12-20T01:10:59.480Z,73.93
2018-12-20T01:15:03.003Z,73.22
2018-12-20T01:19:06.550Z,73.69
2018-12-20T01:23:10.221Z,73.83
2018-12-20T01:27:13.751Z,73.95
2018-12-20T01:31:17.200Z,74.08
2018-12-20T01:35:20.667Z,73.42
2018-12-20T01:39:24.300Z,73.71
2018-12-20T01:43:27.964Z,73.92
2018-12-20T01:47:31.538Z,73.60
2018-12-20T01:51:35.259Z,73.95
2018-12-20T01:55:38.767Z,73.29
2018-12-20T01:59:42.327Z,73.66
2018-12-20T02:03:45.804Z,73.46
2018-12-20T02:07:49.380Z,73.47
2018-12-20T02:11:52.875Z,73.35
2018-12-20T02:15:56.452Z,73.59
2018-12-20T02:20:00.193Z,73.25
2018-12-20T02:24:04.522Z,73.41
2018-12-20T02:28:08.158Z,74.04
2018-12-20T02:32:11.883Z,73.66
2018-12-20T02:36:15.425Z,73.63
2018-12-20T02:40:19.030Z,73.58
2018-12-20T02:44:22.707Z,73.98
2018-12-20T02:48:26.359Z,73.28
2018-12-20T02:52:30.166Z,73.55
2018-12-20T02:56:33.894Z,73.42
2018-12-20T03:00:37.403Z,73.50
2018-12-20T03:04:40.983Z,73.40
2018-12-20T03:08:44.667Z,73.74
2018-12-20T03:12:48.641Z,73.58
2018-12-20T03:16:52.323Z,73.33
2018-12-20T03:20:55.895Z,73.94
2018-12-20T03:24:59.594Z,73.72
2018-12-20T03:29:03.277Z,73.96
2018-12-20T03:33:07.035Z,74.10
2018-12-20T03:37:12.340Z,73.81
2018-12-20T03:41:15.975Z,73.42
2018-12-20T03:45:19.794Z,74.34
2018-12-20T03:49:23.556Z,74.18
2018-12-20T03:53:27.198Z,74.00
2018-12-20T03:57:30.719Z,74.65
2018-12-20T04:01:34.261Z,74.09
2018-12-20T04:05:37.964Z,74.55
2018-12-20T04:09:41.502Z,74.10
2018-12-20T04:13:45.967Z,74.07
2018-12-20T04:17:49.465Z,74.34
2018-12-20T04:21:53.121Z,74.14
2018-12-20T04:25:57.013Z,74.24
2018-12-20T04:30:00.619Z,74.14
2018-12-20T04:34:04.657Z,74.39
2018-12-20T04:38:08.128Z,74.46
2018-12-20T04:42:11.533Z,74.35
2018-12-20T04:46:15.006Z,74.31
2018-12-20T04:50:18.548Z,74.79
2018-12-20T04:54:22.191Z,74.13
2018-12-20T04:58:25.781Z,74.79
2018-12-20T05:02:29.400Z,75.02
2018-12-20T05:06:32.876Z,74.41
2018-12-20T05:10:36.402Z,74.25
2018-12-20T05:14:39.998Z,74.60
2018-12-20T05:18:43.589Z,74.45
2018-12-20T05:22:47.154Z,74.42
2018-12-20T05:26:50.717Z,74.75
2018-12-20T05:30:54.328Z,74.32
2018-12-20T05:34:58.272Z,74.85
2018-12-20T05:39:01.737Z,74.76
2018-12-20T05:43:05.228Z,74.76
2018-12-20T05:47:08.943Z,75.05
2018-12-20T05:51:12.459Z,74.58
2018-12-20T05:55:16.002Z,75.19
2018-12-20T05:59:19.539Z,74.85
2018-12-20T06:03:23.100Z,75.04
2018-12-20T06:07:26.790Z,74.77
2018-12-20T06:11:30.390Z,75.02
2018-12-20T06:15:34.521Z,74.50
2018-12-20T06:19:38.154Z,74.47
2018-12-20T06:23:41.739Z,74.79
2018-12-20T06:27:45.202Z,74.96
2018-12-20T06:31:48.673Z,74.49
2018-12-20T06:35:52.131Z,74.52
2018-12-20T06:39:55.703Z,74.93
2018-12-20T06:44:07.012Z,74.97
2018-12-20T06:48:04.623Z,75.18
2018-12-20T06:52:08.119Z,74.73
2018-12-20T06:56:11.662Z,74.87
2018-12-20T07:00:15.097Z,74.65
2018-12-20T07:04:18.680Z,74.71
2018-12-20T07:08:22.179Z,74.95
2018-12-20T07:12:25.611Z,74.78
2018-12-20T07:16:29.607Z,75.24
2018-12-20T07:20:33.282Z,74.75
2018-12-20T07:24:37.105Z,74.78
2018-12-20T07:28:40.613Z,74.61
2018-12-20T07:32:44.068Z,75.40
2018-12-20T07:36:47.592Z,74.94
2018-12-20T07:40:51.124Z,75.12
2018-12-20T07:44:54.581Z,74.99
2018-12-20T07:48:58.094Z,75.35
2018-12-20T07:53:02.307Z,74.94
2018-12-20T07:57:05.809Z,74.82
2018-12-20T08:01:09.375Z,75.42
2018-12-20T08:05:12.822Z,75.13
2018-12-20T08:09:16.232Z,75.43
2018-12-20T08:13:19.790Z,75.21
2018-12-20T08:17:23.301Z,75.21
2018-12-20T08:21:26.775Z,74.99
2018-12-20T08:25:30.805Z,74.94
2018-12-20T08:29:35.145Z,75.15
2018-12-20T08:33:38.716Z,75.29
2018-12-20T08:37:42.747Z,75.86
2018-12-20T08:41:46.205Z,75.74
2018-12-20T08:45:49.655Z,75.56
2018-12-20T08:49:53.217Z,75.15
2018-12-20T08:53:56.871Z,75.54
2018-12-20T08:58:00.335Z,75.17
2018-12-20T09:02:03.783Z,75.22
2018-12-20T09:06:07.254Z,75.35
2018-12-20T09:10:10.811Z,75.81
2018-12-20T09:14:16.184Z,75.92
2018-12-20T09:18:19.940Z,75.41
2018-12-20T09:22:23.402Z,75.39
2018-12-20T09:26:26.948Z,75.68
2018-12-20T09:30:30.946Z,75.62
2018-12-20T09:34:34.428Z,75.29
2018-12-20T09:38:38.008Z,75.73
2018-12-20T09:42:41.486Z,75.45
2018-12-20T09:46:45.000Z,75.71
2018-12-20T09:50:48.477Z,75.21
2018-12-20T09:54:51.932Z,75.12
2018-12-20T09:58:55.524Z,75.97
2018-12-20T10:02:59.026Z,75.74
2018-12-20T10:07:02.517Z,75.69
2018-12-20T10:11:05.935Z,75.84
2018-12-20T10:15:09.485Z,75.60
2018-12-20T10:19:13.704Z,75.96
2018-12-20T10:23:17.238Z,75.48
2018-12-20T10:27:20.695Z,75.63
2018-12-20T10:31:24.165Z,76.06
2018-12-20T10:35:27.614Z,75.74
2018-12-20T10:39:31.239Z,75.98
2018-12-20T10:43:34.720Z,76.05
2018-12-20T10:47:38.128Z,75.83
2018-12-20T10:51:41.609Z,76.11
2018-12-20T10:55:45.151Z,75.85
2018-12-20T10:59:48.856Z,75.91
2018-12-20T11:03:56.558Z,76.04
2018-12-20T11:08:04.172Z,75.52
2018-12-20T11:12:08.655Z,75.43
2018-12-20T11:16:12.083Z,75.67
2018-12-20T11:20:15.546Z,75.70
2018-12-20T11:24:19.035Z,75.99
2018-12-20T11:28:22.540Z,75.16
2018-12-20T11:32:26.075Z,75.91
2018-12-20T11:36:29.554Z,75.29
2018-12-20T11:40:33.103Z,75.16
2018-12-20T11:44:36.853Z,75.20
2018-12-20T11:48:40.339Z,75.25
2018-12-20T11:52:43.798Z,75.93
2018-12-20T11:56:47.274Z,75.54
2018-12-20T12:00:50.735Z,75.88
2018-12-20T12:04:54.265Z,75.57
2018-12-20T12:08:57.884Z,76.15
2018-12-20T12:13:01.539Z,76.16
2018-12-20T12:17:05.198Z,76.18
2018-12-20T12:21:08.870Z,75.79
2018-12-20T12:25:12.581Z,75.45
2018-12-20T12:29:16.218Z,75.72
2018-12-20T12:33:19.812Z,75.50
2018-12-20T12:37:23.438Z,75.55
2018-12-20T12:41:27.151Z,75.64
2018-12-20T12:45:30.866Z,76.14
2018-12-20T12:49:34.675Z,76.09
2018-12-20T12:53:38.217Z,76.71
2018-12-20T12:57:41.669Z,76.30
2018-12-20T13:01:45.162Z,76.10
2018-12-20T13:05:48.750Z,76.67
2018-12-20T13:09:52.291Z,76.41
2018-12-20T13:13:55.829Z,76.86
2018-12-20T13:17:59.377Z,76.30
2018-12-20T13:22:04.084Z,76.27
2018-12-20T13:26:07.617Z,76.73
2018-12-20T13:30:12.432Z,76.63
2018-12-20T13:34:15.915Z,76.49
2018-12-20T13:38:19.348Z,76.26
2018-12-20T13:42:22.793Z,76.47
2018-12-20T13:46:26.244Z,76.53
2018-12-20T13:50:29.704Z,76.85
2018-12-20T13:54:33.237Z,76.71
2018-12-20T13:58:37.787Z,77.03
2018-12-20T14:02:41.373Z,77.23
2018-12-20T14:06:44.934Z,76.63
2018-12-20T14:10:48.433Z,76.42
2018-12-20T14:14:51.948Z,77.21
2018-12-20T14:18:55.439Z,76.83
2018-12-20T14:22:58.888Z,77.16
2018-12-20T14:27:02.347Z,77.62
2018-12-20T14:31:05.813Z,77.32
2018-12-20T14:35:09.493Z,76.67
2018-12-20T14:39:12.981Z,76.66
2018-12-20T14:43:16.710Z,76.88
2018-12-20T14:47:20.324Z,75.96
2018-12-20T14:51:23.824Z,75.73
2018-12-20T14:55:27.266Z,77.19
2018-12-20T14:59:32.409Z,77.56
2018-12-20T15:03:36.161Z,76.89
2018-12-20T15:07:39.747Z,76.21
2018-12-20T15:11:43.268Z,75.91
2018-12-20T15:15:46.741Z,76.12
2018-12-20T15:19:50.543Z,76.59
2018-12-20T15:23:54.621Z,76.35
2018-12-20T15:27:58.352Z,76.51
2018-12-20T15:32:01.822Z,76.35
2018-12-20T15:36:05.405Z,76.12
2018-12-20T15:40:09.637Z,75.83
2018-12-20T15:44:13.108Z,76.68
2018-12-20T15:48:17.002Z,76.91
2018-12-20T15:52:20.760Z,76.33
2018-12-20T15:56:24.324Z,76.91
2018-12-20T16:00:27.771Z,76.98
2018-12-20T16:04:31.249Z,76.64
2018-12-20T16:08:34.782Z,76.66
2018-12-20T16:12:38.352Z,76.27
2018-12-20T16:16:42.055Z,76.96
2018-12-20T16:20:45.815Z,76.28
2018-12-20T16:24:49.294Z,76.39
2018-12-20T16:28:53.057Z,76.87
2018-12-20T16:32:56.532Z,76.97
2018-12-20T16:36:59.947Z,76.64
2018-12-20T16:41:04.521Z,77.27
2018-12-20T16:45:08.767Z,77.21
2018-12-20T16:49:13.766Z,77.11
2018-12-20T16:53:17.632Z,77.32
2018-12-20T16:57:21.129Z,76.81
2018-12-20T17:01:24.735Z,77.12
2018-12-20T17:05:28.553Z,77.53
2018-12-20T17:09:32.068Z,77.26
2018-12-20T17:13:35.777Z,77.92
2018-12-20T17:17:39.686Z,76.97
2018-12-20T17:21:43.614Z,77.21
2018-12-20T17:25:47.083Z,77.72
2018-12-20T17:29:50.548Z,77.70
2018-12-20T17:33:54.163Z,77.09
2018-12-20T17:37:57.612Z,77.72
2018-12-20T17:42:01.087Z,77.65
2018-12-20T17:46:04.596Z,77.66
2018-12-20T17:50:08.736Z,78.19
2018-12-20T17:54:12.264Z,77.51
2018-12-20T17:58:18.838Z,77.82
2018-12-20T18:02:22.992Z,78.29
2018-12-20T18:06:26.701Z,78.16
2018-12-20T18:10:30.367Z,78.04
2018-12-20T18:14:34.566Z,78.36
2018-12-20T18:18:38.101Z,77.54
2018-12-20T18:22:41.585Z,77.84
2018-12-20T18:26:45.290Z,78.37
2018-12-20T18:30:49.193Z,77.45
2018-12-20T18:34:52.636Z,77.66
2018-12-20T18:38:56.462Z,77.55
2018-12-20T18:43:01.767Z,78.00
2018-12-20T18:47:05.609Z,77.87
2018-12-20T18:51:09.109Z,77.78
2018-12-20T18:55:12.626Z,77.75
2018-12-20T18:59:16.229Z,77.96
2018-12-20T19:03:19.835Z,78.34
2018-12-20T19:07:23.512Z,78.54
2018-12-20T19:11:27.003Z,78.94
2018-12-20T19:15:30.468Z,78.30
2018-12-20T19:19:34.148Z,78.32
2018-12-20T19:23:37.619Z,78.08
2018-12-20T19:27:41.272Z,78.28
2018-12-20T19:31:44.961Z,78.76
2018-12-20T19:35:48.474Z,77.88
2018-12-20T19:39:56.326Z,77.63
2018-12-20T19:44:00.064Z,78.04
2018-12-20T19:48:03.721Z,77.85
2018-12-20T19:52:07.284Z,78.26
2018-12-20T19:56:10.785Z,78.44
2018-12-20T20:00:16.248Z,78.32
2018-12-20T20:04:19.759Z,78.12
2018-12-20T20:08:23.328Z,78.02
2018-12-20T20:12:26.799Z,77.94
2018-12-20T20:16:30.305Z,77.75
2018-12-20T20:20:33.911Z,77.77
2018-12-20T20:24:37.392Z,77.45
2018-12-20T20:28:40.839Z,77.54
2018-12-20T20:32:44.378Z,77.90
2018-12-20T20:36:48.065Z,77.82
2018-12-20T20:40:51.745Z,77.82
2018-12-20T20:44:55.253Z,77.52
2018-12-20T20:48:58.832Z,77.78
2018-12-20T20:53:02.397Z,77.49
2018-12-20T20:57:05.940Z,77.39
2018-12-20T21:01:09.493Z,77.69
2018-12-20T21:05:13.326Z,77.46
2018-12-20T21:09:16.872Z,77.39
2018-12-20T21:13:20.350Z,76.54
2018-12-20T21:17:23.958Z,77.04
2018-12-20T21:21:27.716Z,76.21
2018-12-20T21:25:31.335Z,76.36
2018-12-20T21:29:35.123Z,77.20
2018-12-20T21:33:38.999Z,76.54
2018-12-20T21:37:42.433Z,77.58
2018-12-20T21:41:45.940Z,77.16
2018-12-20T21:45:49.425Z,77.81
2018-12-20T21:49:52.856Z,77.61
2018-12-20T21:53:56.371Z,77.16
2018-12-20T21:57:59.848Z,76.88
2018-12-20T22:02:03.709Z,76.81
2018-12-20T22:06:07.265Z,77.13
2018-12-20T22:10:10.772Z,77.09
2018-12-20T22:14:14.265Z,76.86
2018-12-20T22:18:17.788Z,77.54
2018-12-20T22:22:21.574Z,77.26
2018-12-20T22:26:25.165Z,77.81
2018-12-20T22:30:28.720Z,78.22
2018-12-20T22:34:32.230Z,78.14
2018-12-20T22:38:35.913Z,78.16
2018-12-20T22:42:39.772Z,78.79
2018-12-20T22:46:43.296Z,79.36
2018-12-20T22:50:46.807Z,79.19
2018-12-20T22:54:50.279Z,79.48
2018-12-20T22:58:53.791Z,79.83
2018-12-20T23:02:57.303Z,79.98
2018-12-20T23:07:00.818Z,80.56
2018-12-20T23:11:04.340Z,80.09
2018-12-20T23:15:07.873Z,80.36
2018-12-20T23:19:11.344Z,79.94
2018-12-20T23:23:14.820Z,79.71
2018-12-20T23:27:18.329Z,80.44
2018-12-20T23:31:21.796Z,80.10
2018-12-20T23:35:25.365Z,80.04
2018-12-20T23:39:28.960Z,80.24
2018-12-20T23:43:32.502Z,80.31
2018-12-20T23:47:36.111Z,79.96
2018-12-20T23:51:45.271Z,79.60
2018-12-20T23:55:45.747Z,79.96
2018-12-20T23:59:49.286Z,80.14
